Main page
METAR-TAF:

METAR-TAF

Airports :

Monte Cimone, Italy

latitude: 44-12N, longitude: 010-42E, elevation: 2165 m

Current weather observation

The report was made 42 minutes ago, at 11:55 UTC
Wind 5 kt from the South
Temperature 14°C
Humidity 63%
Pressure 1027 hPa

METAR: LIVC 171155Z AUTO 19005KT //// 14/07 Q1027

Time: 14:37 (12:37 UTC)


TAF: missing

Weather observations and forecasts of more than 4000 airports (METAR and TAF reports).

The available stations are represented by yellow and red dots on the map.

Hover mouse over dot to see the name of the station.

Then click to see weather observations and forecasts.

To change the map : click on the green buttons with a black cross to zoom in, on the green button with a dash to zoom out, or on the green arrows for adjacent maps.


METAR-TAF: